createdAt,value
2016-04-23T00:00:04.810Z,0
2016-04-23T00:00:47.747Z,0
2016-04-23T00:01:30.657Z,0
2016-04-23T00:02:13.566Z,0
2016-04-23T00:02:56.457Z,0
2016-04-23T00:03:39.490Z,0
2016-04-23T00:04:22.446Z,0
2016-04-23T00:05:05.652Z,0
2016-04-23T00:05:48.590Z,0
2016-04-23T00:06:31.639Z,0
2016-04-23T00:07:14.610Z,0
2016-04-23T00:07:57.657Z,0
2016-04-23T00:08:40.551Z,0
2016-04-23T00:09:23.459Z,0
2016-04-23T00:10:06.369Z,0
2016-04-23T00:10:49.291Z,0
2016-04-23T00:11:32.215Z,0
2016-04-23T00:12:15.187Z,0
2016-04-23T00:12:58.155Z,0
2016-04-23T00:13:41.048Z,0
2016-04-23T00:14:23.926Z,0
2016-04-23T00:15:06.835Z,0
2016-04-23T00:15:49.710Z,0
2016-04-23T00:16:32.619Z,0
2016-04-23T00:17:15.653Z,0
2016-04-23T00:17:58.559Z,0
2016-04-23T00:18:41.468Z,0
2016-04-23T00:19:24.346Z,0
2016-04-23T00:20:07.020Z,0
2016-04-23T00:20:50.051Z,0
2016-04-23T00:21:33.101Z,0
2016-04-23T00:22:15.995Z,0
2016-04-23T00:22:58.917Z,0
2016-04-23T00:23:41.966Z,0
2016-04-23T00:24:24.891Z,0
2016-04-23T00:25:07.784Z,0
2016-04-23T00:25:50.690Z,0
2016-04-23T00:26:33.599Z,0
2016-04-23T00:27:16.539Z,0
2016-04-23T00:27:59.448Z,0
2016-04-23T00:28:42.370Z,0
2016-04-23T00:29:25.185Z,0
2016-04-23T00:30:08.172Z,0
2016-04-23T00:30:51.172Z,0
2016-04-23T00:31:34.253Z,0
2016-04-23T00:32:17.038Z,0
2016-04-23T00:33:00.008Z,0
2016-04-23T00:33:42.165Z,0
2016-04-23T00:34:25.136Z,0
2016-04-23T00:35:07.858Z,0
2016-04-23T00:35:50.780Z,0
2016-04-23T00:36:33.673Z,0
2016-04-23T00:37:16.566Z,0
2016-04-23T00:37:59.538Z,0
2016-04-23T00:38:42.444Z,0
2016-04-23T00:39:25.321Z,0
2016-04-23T00:40:08.043Z,0
2016-04-23T00:40:50.918Z,0
2016-04-23T00:41:33.796Z,0
2016-04-23T00:42:16.704Z,0
2016-04-23T00:42:59.582Z,0
2016-04-23T00:43:42.473Z,0
2016-04-23T00:44:25.366Z,0
2016-04-23T00:45:08.260Z,0
2016-04-23T00:45:51.135Z,0
2016-04-23T00:46:34.043Z,0
2016-04-23T00:47:16.968Z,0
2016-04-23T00:47:59.893Z,0
2016-04-23T00:48:41.987Z,0
2016-04-23T00:49:24.864Z,0
2016-04-23T00:50:07.773Z,0
2016-04-23T00:50:50.664Z,0
2016-04-23T00:51:33.556Z,0
2016-04-23T00:52:16.435Z,0
2016-04-23T00:52:59.326Z,0
2016-04-23T00:53:42.203Z,0
2016-04-23T00:54:24.925Z,0
2016-04-23T00:55:07.833Z,0
2016-04-23T00:55:50.708Z,0
2016-04-23T00:56:33.633Z,0
2016-04-23T00:57:16.542Z,0
2016-04-23T00:57:59.433Z,0
2016-04-23T00:58:42.310Z,0
2016-04-23T00:59:25.203Z,0
2016-04-23T01:00:08.081Z,0
2016-04-23T01:00:51.003Z,0
2016-04-23T01:01:33.897Z,0
2016-04-23T01:02:16.821Z,0
2016-04-23T01:02:59.696Z,0
2016-04-23T01:03:42.573Z,0
2016-04-23T01:04:25.466Z,0
2016-04-23T01:05:08.377Z,0
2016-04-23T01:05:51.283Z,0
2016-04-23T01:06:34.160Z,0
2016-04-23T01:07:17.084Z,0
2016-04-23T01:07:59.978Z,0
2016-04-23T01:08:42.869Z,0
2016-04-23T01:09:25.746Z,0
2016-04-23T01:10:08.655Z,0
2016-04-23T01:10:51.546Z,0
2016-04-23T01:11:34.454Z,0
2016-04-23T01:12:17.349Z,0
2016-04-23T01:13:00.226Z,0
2016-04-23T01:13:43.116Z,0
2016-04-23T01:14:26.009Z,0
2016-04-23T01:15:08.887Z,0
2016-04-23T01:15:51.778Z,0
2016-04-23T01:16:34.670Z,0
2016-04-23T01:17:17.580Z,0
2016-04-23T01:18:00.457Z,0
2016-04-23T01:18:43.348Z,0
2016-04-23T01:19:26.226Z,0
2016-04-23T01:20:08.338Z,0
2016-04-23T01:20:51.213Z,0
2016-04-23T01:21:34.123Z,0
2016-04-23T01:22:17.000Z,0
2016-04-23T01:22:59.953Z,0
2016-04-23T01:23:42.877Z,0
2016-04-23T01:24:25.771Z,0
2016-04-23T01:25:08.680Z,0
2016-04-23T01:25:51.555Z,0
2016-04-23T01:26:34.448Z,0
2016-04-23T01:27:17.325Z,0
2016-04-23T01:28:00.216Z,0
2016-04-23T01:28:43.125Z,0
2016-04-23T01:29:26.003Z,0
2016-04-23T01:30:08.896Z,0
2016-04-23T01:30:51.771Z,0
2016-04-23T01:31:34.664Z,0
2016-04-23T01:32:17.558Z,0
2016-04-23T01:33:00.464Z,0
2016-04-23T01:33:43.342Z,0
2016-04-23T01:34:26.219Z,0
2016-04-23T01:35:09.191Z,0
2016-04-23T01:35:52.128Z,0
2016-04-23T01:36:35.085Z,0
2016-04-23T01:37:18.055Z,0
2016-04-23T01:38:00.980Z,0
2016-04-23T01:38:43.933Z,0
2016-04-23T01:39:26.889Z,0
2016-04-23T01:40:09.860Z,0
2016-04-23T01:40:52.813Z,0
2016-04-23T01:41:35.754Z,0
2016-04-23T01:42:18.694Z,0
2016-04-23T01:43:01.681Z,0
2016-04-23T01:43:44.634Z,0
2016-04-23T01:44:27.590Z,0
2016-04-23T01:45:10.562Z,0
2016-04-23T01:45:53.359Z,0
2016-04-23T01:46:36.299Z,0
2016-04-23T01:47:19.254Z,0
2016-04-23T01:48:02.210Z,0
2016-04-23T01:48:45.163Z,0
2016-04-23T01:49:28.135Z,0
2016-04-23T01:50:11.090Z,0
2016-04-23T01:50:54.043Z,0
2016-04-23T01:51:37.015Z,0
2016-04-23T01:52:19.970Z,0
2016-04-23T01:53:02.927Z,0
2016-04-23T01:53:45.881Z,0
2016-04-23T01:54:28.851Z,0
2016-04-23T01:55:11.791Z,0
2016-04-23T01:55:55.056Z,0
2016-04-23T01:56:38.029Z,0
2016-04-23T01:57:20.969Z,0
2016-04-23T01:58:03.909Z,0
2016-04-23T01:58:46.862Z,0
2016-04-23T01:59:29.802Z,0
2016-04-23T02:00:12.775Z,0
2016-04-23T02:00:55.728Z,0
2016-04-23T02:01:38.698Z,0
2016-04-23T02:02:21.669Z,0
2016-04-23T02:03:04.625Z,0
2016-04-23T02:03:47.578Z,0
2016-04-23T02:04:30.518Z,0
2016-04-23T02:05:13.506Z,0
2016-04-23T02:05:56.428Z,0
2016-04-23T02:06:39.399Z,0
2016-04-23T02:07:22.386Z,0
2016-04-23T02:08:05.171Z,0
2016-04-23T02:08:48.124Z,0
2016-04-23T02:09:31.080Z,0
2016-04-23T02:10:14.004Z,0
2016-04-23T02:10:56.972Z,0
2016-04-23T02:11:39.912Z,0
2016-04-23T02:12:22.900Z,0
2016-04-23T02:13:05.840Z,0
2016-04-23T02:13:48.793Z,0
2016-04-23T02:14:31.718Z,0
2016-04-23T02:15:14.673Z,0
2016-04-23T02:15:57.626Z,0
2016-04-23T02:16:40.598Z,0
2016-04-23T02:17:23.554Z,0
2016-04-23T02:18:06.509Z,0
2016-04-23T02:18:49.462Z,0
2016-04-23T02:19:32.418Z,0
2016-04-23T02:20:15.359Z,0
2016-04-23T02:20:58.328Z,0
2016-04-23T02:21:41.143Z,0
2016-04-23T02:22:23.608Z,0
2016-04-23T02:23:06.548Z,0
2016-04-23T02:23:49.486Z,0
2016-04-23T02:24:32.442Z,0
2016-04-23T02:25:15.382Z,0
2016-04-23T02:25:58.335Z,0
2016-04-23T02:26:41.291Z,0
2016-04-23T02:27:24.246Z,0
2016-04-23T02:28:07.219Z,0
2016-04-23T02:28:50.172Z,0
2016-04-23T02:29:33.127Z,0
2016-04-23T02:30:16.052Z,0
2016-04-23T02:30:59.036Z,0
2016-04-23T02:31:41.992Z,0
2016-04-23T02:32:24.963Z,0
2016-04-23T02:33:07.966Z,0
2016-04-23T02:33:50.919Z,0
2016-04-23T02:34:33.859Z,0
2016-04-23T02:35:16.893Z,0
2016-04-23T02:35:59.846Z,0
2016-04-23T02:36:42.818Z,0
2016-04-23T02:37:25.758Z,0
2016-04-23T02:38:08.713Z,0
2016-04-23T02:38:51.698Z,0
2016-04-23T02:39:34.670Z,0
2016-04-23T02:40:17.610Z,0
2016-04-23T02:41:00.563Z,0
2016-04-23T02:41:43.503Z,0
2016-04-23T02:42:26.459Z,0
2016-04-23T02:43:09.415Z,0
2016-04-23T02:43:52.384Z,0
2016-04-23T02:44:35.340Z,0
2016-04-23T02:45:18.295Z,0
2016-04-23T02:46:01.264Z,0
2016-04-23T02:46:44.235Z,0
2016-04-23T02:47:27.067Z,0
2016-04-23T02:48:10.022Z,0
2016-04-23T02:48:52.959Z,0
2016-04-23T02:49:35.915Z,0
2016-04-23T02:50:18.870Z,0
2016-04-23T02:51:01.839Z,0
2016-04-23T02:51:44.781Z,0
2016-04-23T02:52:27.751Z,0
2016-04-23T02:53:10.535Z,0
2016-04-23T02:53:53.488Z,0
2016-04-23T02:54:36.445Z,0
2016-04-23T02:55:19.416Z,0
2016-04-23T02:56:02.213Z,0
2016-04-23T02:56:45.184Z,0
2016-04-23T02:57:28.124Z,0
2016-04-23T02:58:11.081Z,0
2016-04-23T02:58:53.878Z,0
2016-04-23T02:59:36.817Z,0
2016-04-23T03:00:19.804Z,0
2016-04-23T03:01:02.760Z,0
2016-04-23T03:01:45.557Z,0
2016-04-23T03:02:28.513Z,0
2016-04-23T03:03:11.453Z,0
2016-04-23T03:03:54.406Z,0
2016-04-23T03:04:37.362Z,0
2016-04-23T03:05:20.318Z,0
2016-04-23T03:06:03.258Z,0
2016-04-23T03:06:46.227Z,0
2016-04-23T03:07:29.182Z,0
2016-04-23T03:08:12.154Z,0
2016-04-23T03:08:55.091Z,0
2016-04-23T03:09:38.032Z,0
2016-04-23T03:10:20.988Z,0
2016-04-23T03:11:03.943Z,0
2016-04-23T03:11:46.912Z,0
2016-04-23T03:12:29.867Z,0
2016-04-23T03:13:12.824Z,0
2016-04-23T03:13:55.762Z,0
2016-04-23T03:14:38.717Z,0
2016-04-23T03:15:21.656Z,0
2016-04-23T03:16:04.629Z,0
2016-04-23T03:16:47.582Z,0
2016-04-23T03:17:30.537Z,0
2016-04-23T03:18:13.478Z,0
2016-04-23T03:18:56.415Z,0
2016-04-23T03:19:39.371Z,0
2016-04-23T03:20:22.327Z,0
2016-04-23T03:21:05.251Z,0
2016-04-23T03:21:48.220Z,0
2016-04-23T03:22:31.176Z,0
2016-04-23T03:23:14.147Z,0
2016-04-23T03:23:57.084Z,0
2016-04-23T03:24:40.041Z,0
2016-04-23T03:25:22.980Z,0
2016-04-23T03:26:05.936Z,0
2016-04-23T03:26:48.905Z,0
2016-04-23T03:27:31.878Z,0
2016-04-23T03:28:14.817Z,0
2016-04-23T03:28:57.755Z,0
2016-04-23T03:29:40.695Z,0
2016-04-23T03:30:23.650Z,0
2016-04-23T03:31:06.591Z,0
2016-04-23T03:31:49.544Z,0
2016-04-23T03:32:32.516Z,0
2016-04-23T03:33:15.455Z,0
2016-04-23T03:33:58.408Z,0
2016-04-23T03:34:41.349Z,0
2016-04-23T03:35:24.321Z,0
2016-04-23T03:36:07.261Z,0
2016-04-23T03:36:50.245Z,0
2016-04-23T03:37:33.216Z,0
2016-04-23T03:38:16.157Z,0
2016-04-23T03:38:59.094Z,0
2016-04-23T03:39:42.082Z,0
2016-04-23T03:40:25.021Z,0
2016-04-23T03:41:07.961Z,0
2016-04-23T03:41:50.914Z,0
2016-04-23T03:42:33.870Z,0
2016-04-23T03:43:16.827Z,0
2016-04-23T03:43:59.639Z,0
2016-04-23T03:44:42.595Z,0
2016-04-23T03:45:25.551Z,0
2016-04-23T03:46:08.506Z,0
2016-04-23T03:46:51.459Z,4
2016-04-23T03:47:34.399Z,4
2016-04-23T03:48:17.356Z,4
2016-04-23T03:49:00.309Z,0
2016-04-23T03:49:43.248Z,0
2016-04-23T03:50:26.220Z,4
2016-04-23T03:51:09.192Z,4
2016-04-23T03:51:52.129Z,4
2016-04-23T03:52:35.054Z,4
2016-04-23T03:53:18.009Z,4
2016-04-23T03:54:00.962Z,8
2016-04-23T03:54:43.918Z,4
2016-04-23T03:55:26.909Z,8
2016-04-23T03:56:09.849Z,8
2016-04-23T03:56:52.787Z,8
2016-04-23T03:57:35.758Z,12
2016-04-23T03:58:18.698Z,12
2016-04-23T03:59:01.667Z,12
2016-04-23T03:59:44.608Z,16
2016-04-23T04:00:27.578Z,16
2016-04-23T04:01:10.519Z,16
2016-04-23T04:01:53.488Z,20
2016-04-23T04:02:36.444Z,20
2016-04-23T04:03:19.384Z,24
2016-04-23T04:04:02.337Z,24
2016-04-23T04:04:45.276Z,28
2016-04-23T04:05:28.248Z,32
2016-04-23T04:06:11.204Z,32
2016-04-23T04:06:53.361Z,36
2016-04-23T04:07:36.301Z,36
2016-04-23T04:08:19.288Z,44
2016-04-23T04:09:02.242Z,44
2016-04-23T04:09:45.181Z,52
2016-04-23T04:10:28.136Z,52
2016-04-23T04:11:11.109Z,60
2016-04-23T04:11:54.062Z,60
2016-04-23T04:12:37.017Z,68
2016-04-23T04:13:19.958Z,68
2016-04-23T04:14:02.895Z,72
2016-04-23T04:14:45.867Z,80
2016-04-23T04:15:28.681Z,84
2016-04-23T04:16:11.638Z,92
2016-04-23T04:16:54.591Z,100
2016-04-23T04:17:37.578Z,104
2016-04-23T04:18:20.518Z,112
2016-04-23T04:19:03.471Z,120
2016-04-23T04:19:46.427Z,128
2016-04-23T04:20:29.366Z,140
2016-04-23T04:21:12.354Z,148
2016-04-23T04:21:55.291Z,164
2016-04-23T04:22:38.263Z,176
2016-04-23T04:23:21.219Z,188
2016-04-23T04:24:04.188Z,204
2016-04-23T04:24:47.128Z,228
2016-04-23T04:25:30.083Z,244
2016-04-23T04:26:13.024Z,268
2016-04-23T04:26:55.977Z,292
2016-04-23T04:27:38.948Z,316
2016-04-23T04:28:21.935Z,344
2016-04-23T04:29:04.888Z,364
2016-04-23T04:29:47.844Z,388
2016-04-23T04:30:30.816Z,416
2016-04-23T04:31:13.757Z,440
2016-04-23T04:31:56.710Z,460
2016-04-23T04:32:39.665Z,476
2016-04-23T04:33:22.605Z,496
2016-04-23T04:34:05.559Z,516
2016-04-23T04:34:48.514Z,536
2016-04-23T04:35:31.485Z,552
2016-04-23T04:36:14.425Z,572
2016-04-23T04:36:57.409Z,592
2016-04-23T04:37:40.350Z,612
2016-04-23T04:38:23.306Z,628
2016-04-23T04:39:06.278Z,644
2016-04-23T04:39:49.278Z,664
2016-04-23T04:40:32.234Z,680
2016-04-23T04:41:15.173Z,696
2016-04-23T04:41:58.142Z,708
2016-04-23T04:42:41.083Z,720
2016-04-23T04:43:24.053Z,732
2016-04-23T04:44:06.994Z,748
2016-04-23T04:44:49.978Z,760
2016-04-23T04:45:32.919Z,776
2016-04-23T04:46:15.875Z,788
2016-04-23T04:46:58.828Z,800
2016-04-23T04:47:41.784Z,812
2016-04-23T04:48:24.724Z,812
2016-04-23T04:49:07.680Z,816
2016-04-23T04:49:50.695Z,824
2016-04-23T04:50:33.697Z,824
2016-04-23T04:51:17.200Z,828
2016-04-23T04:52:00.919Z,828
2016-04-23T04:52:43.952Z,824
2016-04-23T04:53:27.049Z,824
2016-04-23T04:54:10.068Z,824
2016-04-23T04:54:53.052Z,824
2016-04-23T04:55:36.039Z,824
2016-04-23T04:56:19.136Z,844
2016-04-23T04:57:02.183Z,880
2016-04-23T04:57:45.248Z,928
2016-04-23T04:58:28.251Z,980
2016-04-23T04:59:11.456Z,1036
2016-04-23T04:59:54.487Z,1088
2016-04-23T05:00:37.521Z,1132
2016-04-23T05:01:20.587Z,1176
2016-04-23T05:02:04.102Z,1216
2016-04-23T05:02:47.090Z,1244
2016-04-23T05:03:30.186Z,1276
2016-04-23T05:04:13.282Z,1308
2016-04-23T05:04:56.345Z,1332
2016-04-23T05:05:39.410Z,1356
2016-04-23T05:06:22.459Z,1368
2016-04-23T05:07:05.334Z,1392
2016-04-23T05:07:48.354Z,1408
2016-04-23T05:08:31.573Z,1424
2016-04-23T05:09:14.733Z,1448
2016-04-23T05:09:57.920Z,1480
2016-04-23T05:10:40.923Z,1520
2016-04-23T05:11:23.786Z,1556
2016-04-23T05:12:06.819Z,1588
2016-04-23T05:12:49.897Z,1620
2016-04-23T05:13:32.947Z,1644
2016-04-23T05:14:16.387Z,1660
2016-04-23T05:14:58.825Z,1672
2016-04-23T05:15:41.953Z,1680
2016-04-23T05:16:25.205Z,1696
2016-04-23T05:17:08.395Z,1728
2016-04-23T05:17:51.427Z,1764
2016-04-23T05:18:34.570Z,1796
2016-04-23T05:19:17.698Z,1832
2016-04-23T05:20:00.542Z,1852
2016-04-23T05:20:43.591Z,1872
2016-04-23T05:21:26.906Z,1892
2016-04-23T05:22:09.893Z,1904
2016-04-23T05:22:52.971Z,1912
2016-04-23T05:23:36.146Z,1924
2016-04-23T05:24:19.163Z,1944
2016-04-23T05:25:02.570Z,1988
2016-04-23T05:25:45.588Z,2056
2016-04-23T05:26:28.544Z,2140
2016-04-23T05:27:12.079Z,2224
2016-04-23T05:27:55.297Z,2304
2016-04-23T05:28:38.488Z,2380
2016-04-23T05:29:21.630Z,2420
2016-04-23T05:30:05.005Z,2432
2016-04-23T05:30:48.133Z,2448
2016-04-23T05:31:34.276Z,2472
2016-04-23T05:32:17.560Z,2484
2016-04-23T05:33:00.545Z,2492
2016-04-23T05:33:43.579Z,2492
2016-04-23T05:34:26.566Z,2496
2016-04-23T05:35:09.568Z,2500
2016-04-23T05:35:52.584Z,2504
2016-04-23T05:36:36.181Z,2500
2016-04-23T05:37:19.402Z,2504
2016-04-23T05:38:02.731Z,2508
2016-04-23T05:38:46.061Z,2524
2016-04-23T05:39:29.236Z,2556
2016-04-23T05:40:12.348Z,2612
2016-04-23T05:40:55.692Z,2692
2016-04-23T05:41:38.742Z,2788
2016-04-23T05:42:21.869Z,2892
2016-04-23T05:43:05.134Z,3000
2016-04-23T05:43:48.372Z,3092
2016-04-23T05:44:35.125Z,3172
2016-04-23T05:45:18.205Z,3240
2016-04-23T05:46:01.673Z,3296
2016-04-23T05:46:44.723Z,3360
2016-04-23T05:47:27.147Z,3432
2016-04-23T05:48:10.370Z,3520
2016-04-23T05:48:53.557Z,3632
2016-04-23T05:49:36.638Z,3752
2016-04-23T05:50:19.812Z,3888
2016-04-23T05:51:03.141Z,4016
2016-04-23T05:51:46.206Z,4136
2016-04-23T05:52:29.380Z,4248
2016-04-23T05:53:12.586Z,4292
2016-04-23T05:53:55.727Z,4352
2016-04-23T05:54:38.979Z,4428
2016-04-23T05:55:22.154Z,4512
2016-04-23T05:56:05.341Z,4608
2016-04-23T05:56:48.828Z,4700
2016-04-23T05:57:31.877Z,4792
2016-04-23T05:58:14.849Z,4848
2016-04-23T05:58:57.787Z,4904
2016-04-23T05:59:40.727Z,4912
2016-04-23T06:00:23.683Z,4928
2016-04-23T06:01:06.652Z,4932
2016-04-23T06:01:49.638Z,4940
2016-04-23T06:02:32.579Z,4932
2016-04-23T06:03:15.550Z,4928
2016-04-23T06:03:58.471Z,4936
2016-04-23T06:04:41.460Z,4984
2016-04-23T06:05:24.446Z,5048
2016-04-23T06:06:07.415Z,5096
2016-04-23T06:06:50.246Z,5156
2016-04-23T06:07:33.233Z,5248
2016-04-23T06:08:16.235Z,5364
2016-04-23T06:08:59.360Z,5428
2016-04-23T06:09:42.348Z,5528
2016-04-23T06:10:25.678Z,5768
2016-04-23T06:11:08.556Z,5816
2016-04-23T06:11:52.525Z,5772
2016-04-23T06:12:35.793Z,5752
2016-04-23T06:13:19.077Z,5696
2016-04-23T06:14:02.561Z,5652
2016-04-23T06:14:45.673Z,5620
2016-04-23T06:15:28.911Z,5608
2016-04-23T06:16:12.023Z,5624
2016-04-23T06:16:55.289Z,5652
2016-04-23T06:17:38.338Z,5656
2016-04-23T06:18:21.575Z,5676
2016-04-23T06:19:04.950Z,5704
2016-04-23T06:19:48.218Z,5748
2016-04-23T06:20:32.034Z,5796
2016-04-23T06:21:15.287Z,5812
2016-04-23T06:21:58.443Z,5852
2016-04-23T06:22:41.617Z,5844
2016-04-23T06:23:24.714Z,5832
2016-04-23T06:24:07.683Z,5796
2016-04-23T06:24:50.622Z,5792
2016-04-23T06:25:33.594Z,5804
2016-04-23T06:26:16.580Z,5828
2016-04-23T06:26:59.533Z,5804
2016-04-23T06:27:42.490Z,5788
2016-04-23T06:28:25.461Z,5752
2016-04-23T06:29:08.414Z,5672
2016-04-23T06:29:51.371Z,5496
2016-04-23T06:30:34.310Z,5332
2016-04-23T06:31:17.282Z,5288
2016-04-23T06:32:00.235Z,5376
2016-04-23T06:32:43.035Z,5372
2016-04-23T06:33:26.052Z,5264
2016-04-23T06:34:09.024Z,5120
2016-04-23T06:34:51.962Z,5028
2016-04-23T06:35:34.917Z,4920
2016-04-23T06:36:17.890Z,4988
2016-04-23T06:37:00.858Z,5100
2016-04-23T06:37:43.799Z,5232
2016-04-23T06:38:26.754Z,5368
2016-04-23T06:39:09.726Z,5500
2016-04-23T06:39:52.663Z,5744
2016-04-23T06:40:34.853Z,5980
2016-04-23T06:41:17.809Z,5916
2016-04-23T06:42:00.778Z,5844
2016-04-23T06:42:43.717Z,5820
2016-04-23T06:43:26.704Z,5796
2016-04-23T06:44:08.876Z,5884
2016-04-23T06:44:51.817Z,6020
2016-04-23T06:45:34.789Z,6256
2016-04-23T06:46:17.978Z,6472
2016-04-23T06:47:00.947Z,6568
2016-04-23T06:47:43.919Z,6608
2016-04-23T06:48:26.890Z,6908
2016-04-23T06:49:09.830Z,7448
2016-04-23T06:49:52.783Z,7920
2016-04-23T06:50:35.739Z,8252
2016-04-23T06:51:18.694Z,8600
2016-04-23T06:52:01.663Z,8840
2016-04-23T06:52:44.604Z,8896
2016-04-23T06:53:27.576Z,9060
2016-04-23T06:54:10.531Z,9116
2016-04-23T06:54:53.453Z,9088
2016-04-23T06:55:36.425Z,9056
2016-04-23T06:56:19.396Z,9196
2016-04-23T06:57:02.349Z,9344
2016-04-23T06:57:45.305Z,9304
2016-04-23T06:58:28.105Z,9148
2016-04-23T06:59:11.044Z,9080
2016-04-23T06:59:53.997Z,9044
2016-04-23T07:00:36.985Z,9092
2016-04-23T07:01:19.925Z,9336
2016-04-23T07:02:02.878Z,9520
2016-04-23T07:02:45.913Z,9536
2016-04-23T07:03:28.899Z,9180
2016-04-23T07:04:11.840Z,8880
2016-04-23T07:04:54.808Z,8512
2016-04-23T07:05:37.779Z,8220
2016-04-23T07:06:20.845Z,8024
2016-04-23T07:07:03.923Z,7896
2016-04-23T07:07:47.503Z,7844
2016-04-23T07:08:30.351Z,8076
2016-04-23T07:09:13.041Z,8220
2016-04-23T07:09:56.010Z,8352
2016-04-23T07:10:38.965Z,8424
2016-04-23T07:11:21.921Z,8840
2016-04-23T07:12:04.874Z,9104
2016-04-23T07:12:47.829Z,9416
2016-04-23T07:13:30.785Z,9544
2016-04-23T07:14:13.757Z,9404
2016-04-23T07:14:56.695Z,9200
2016-04-23T07:15:39.665Z,8904
2016-04-23T07:16:22.622Z,8720
2016-04-23T07:17:05.575Z,8424
2016-04-23T07:17:48.531Z,8284
2016-04-23T07:18:32.143Z,8404
2016-04-23T07:19:15.270Z,8572
2016-04-23T07:19:58.239Z,8952
2016-04-23T07:20:41.195Z,8876
2016-04-23T07:21:24.150Z,8636
2016-04-23T07:22:06.838Z,8332
2016-04-23T07:22:49.669Z,8124
2016-04-23T07:23:32.641Z,8020
2016-04-23T07:24:15.628Z,7220
2016-04-23T07:24:58.565Z,6900
2016-04-23T07:25:41.521Z,6700
2016-04-23T07:26:24.477Z,6548
2016-04-23T07:27:07.445Z,6380
2016-04-23T07:27:50.401Z,5884
2016-04-23T07:28:33.372Z,5392
2016-04-23T07:29:16.328Z,5036
2016-04-23T07:29:59.282Z,4760
2016-04-23T07:30:42.238Z,4564
2016-04-23T07:31:25.208Z,4296
2016-04-23T07:32:08.162Z,4212
2016-04-23T07:32:51.540Z,4148
2016-04-23T07:33:34.652Z,3960
2016-04-23T07:34:17.451Z,3532
2016-04-23T07:35:00.388Z,3312
2016-04-23T07:35:43.376Z,3248
2016-04-23T07:36:28.301Z,3364
2016-04-23T07:37:11.241Z,3664
2016-04-23T07:37:54.179Z,3860
2016-04-23T07:38:37.134Z,4004
2016-04-23T07:39:20.105Z,3712
2016-04-23T07:40:03.043Z,3572
2016-04-23T07:40:45.998Z,3556
2016-04-23T07:41:28.986Z,3640
2016-04-23T07:42:11.971Z,3316
2016-04-23T07:42:54.939Z,3044
2016-04-23T07:43:37.768Z,3024
2016-04-23T07:44:20.783Z,2868
2016-04-23T07:45:03.737Z,2676
2016-04-23T07:45:46.751Z,2640
2016-04-23T07:46:29.729Z,2952
2016-04-23T07:47:12.733Z,3308
2016-04-23T07:47:55.670Z,3700
2016-04-23T07:48:38.674Z,3944
2016-04-23T07:49:21.490Z,4232
2016-04-23T07:50:04.443Z,4592
2016-04-23T07:50:47.415Z,5004
2016-04-23T07:51:30.410Z,5348
2016-04-23T07:52:13.340Z,5588
2016-04-23T07:52:56.309Z,5804
2016-04-23T07:53:39.271Z,6032
2016-04-23T07:54:22.216Z,6280
2016-04-23T07:55:05.185Z,6504
2016-04-23T07:55:48.146Z,6708
2016-04-23T07:56:31.121Z,6948
2016-04-23T07:57:14.079Z,7248
2016-04-23T07:57:57.064Z,7568
2016-04-23T07:58:40.037Z,7888
2016-04-23T07:59:22.994Z,8168
2016-04-23T08:00:05.963Z,8416
2016-04-23T08:00:48.937Z,8660
2016-04-23T08:01:31.893Z,8896
2016-04-23T08:02:14.849Z,9116
2016-04-23T08:02:58.740Z,9256
2016-04-23T08:03:41.182Z,9728
2016-04-23T08:04:23.982Z,13320
2016-04-23T08:05:06.920Z,10480
2016-04-23T08:05:49.877Z,11448
2016-04-23T08:06:32.660Z,11456
2016-04-23T08:07:15.633Z,27072
2016-04-23T08:07:58.602Z,52448
2016-04-23T08:08:41.573Z,51488
2016-04-23T08:09:24.513Z,57568
2016-04-23T08:10:07.450Z,57696
2016-04-23T08:10:50.423Z,44608
2016-04-23T08:11:33.378Z,55648
2016-04-23T08:12:16.366Z,57568
2016-04-23T08:12:59.319Z,60896
2016-04-23T08:13:41.478Z,61408
2016-04-23T08:14:24.434Z,61920
2016-04-23T08:15:07.418Z,55136
2016-04-23T08:15:50.374Z,54144
2016-04-23T08:16:35.205Z,55616
2016-04-23T08:17:18.175Z,68672
2016-04-23T08:18:01.144Z,68224
2016-04-23T08:18:44.117Z,66048
2016-04-23T08:19:26.947Z,65376
2016-04-23T08:20:09.916Z,40032
2016-04-23T08:20:52.855Z,35680
2016-04-23T08:21:35.655Z,33472
2016-04-23T08:22:18.627Z,35264
2016-04-23T08:23:01.564Z,34496
2016-04-23T08:23:44.567Z,31936
2016-04-23T08:24:27.523Z,24864
2016-04-23T08:25:09.710Z,21664
2016-04-23T08:25:52.667Z,76224
2016-04-23T08:26:35.622Z,37472
2016-04-23T08:27:18.578Z,20064
2016-04-23T08:28:01.532Z,24608
2016-04-23T08:28:44.502Z,48960
2016-04-23T08:29:27.526Z,20640
2016-04-23T08:30:10.495Z,18624
2016-04-23T08:30:53.465Z,17824
2016-04-23T08:31:39.032Z,16928
2016-04-23T08:32:22.018Z,16036
2016-04-23T08:33:04.987Z,15460
2016-04-23T08:33:47.959Z,15912
2016-04-23T08:34:30.945Z,16204
2016-04-23T08:35:14.023Z,15452
2016-04-23T08:36:00.714Z,15060
2016-04-23T08:36:43.685Z,15476
2016-04-23T08:37:26.625Z,17408
2016-04-23T08:38:09.578Z,16928
2016-04-23T08:38:52.535Z,19840
2016-04-23T08:39:35.522Z,19424
2016-04-23T08:40:18.508Z,17920
2016-04-23T08:41:02.867Z,18208
2016-04-23T08:41:45.684Z,18720
2016-04-23T08:42:28.639Z,16388
2016-04-23T08:43:11.592Z,15292
2016-04-23T08:43:54.422Z,14420
2016-04-23T08:44:37.364Z,13272
2016-04-23T08:45:20.413Z,12956
2016-04-23T08:46:05.288Z,11552
2016-04-23T08:46:48.290Z,10436
2016-04-23T08:47:31.246Z,9424
2016-04-23T08:48:14.527Z,9112
2016-04-23T08:48:57.218Z,8756
2016-04-23T08:49:40.174Z,7984
2016-04-23T08:50:23.129Z,7284
2016-04-23T08:51:07.394Z,6476
2016-04-23T08:51:50.351Z,6056
2016-04-23T08:52:33.619Z,5360
2016-04-23T08:53:17.012Z,4664
2016-04-23T08:53:59.996Z,4060
2016-04-23T08:54:43.124Z,3624
2016-04-23T08:55:26.111Z,3348
2016-04-23T08:56:10.502Z,3368
2016-04-23T08:56:53.474Z,3488
2016-04-23T08:57:36.649Z,3756
2016-04-23T08:58:19.635Z,4100
2016-04-23T08:59:02.807Z,4416
2016-04-23T08:59:45.919Z,4752
2016-04-23T09:00:28.874Z,5124
2016-04-23T09:01:11.765Z,5460
2016-04-23T09:01:54.721Z,5832
2016-04-23T09:02:37.693Z,6304
2016-04-23T09:03:20.523Z,6992
2016-04-23T09:04:03.461Z,7688
2016-04-23T09:04:46.417Z,8284
2016-04-23T09:05:29.404Z,8768
2016-04-23T09:06:12.373Z,9196
2016-04-23T09:06:55.501Z,9720
2016-04-23T09:07:38.565Z,10500
2016-04-23T09:08:21.521Z,11008
2016-04-23T09:09:04.490Z,11468
2016-04-23T09:09:47.461Z,12316
2016-04-23T09:10:30.417Z,13248
2016-04-23T09:11:13.370Z,14304
2016-04-23T09:11:56.154Z,15684
2016-04-23T09:12:39.142Z,25728
2016-04-23T09:13:22.097Z,27072
2016-04-23T09:14:05.050Z,28064
2016-04-23T09:14:48.053Z,29664
2016-04-23T09:15:30.994Z,27200
2016-04-23T09:16:15.353Z,30432
2016-04-23T09:16:58.527Z,41984
2016-04-23T09:17:41.717Z,33568
2016-04-23T09:18:24.205Z,98944
2016-04-23T09:19:06.392Z,65760
2016-04-23T09:19:48.551Z,42944
2016-04-23T09:20:31.538Z,59168
2016-04-23T09:21:14.866Z,93280
2016-04-23T09:21:57.853Z,95264
2016-04-23T09:22:40.808Z,87360
2016-04-23T09:23:24.811Z,84160
2016-04-23T09:24:08.218Z,88032
2016-04-23T09:24:51.189Z,96576
2016-04-23T09:25:34.146Z,96096
2016-04-23T09:26:17.099Z,99648
2016-04-23T09:26:59.945Z,99904
2016-04-23T09:27:43.072Z,97696
2016-04-23T09:28:26.231Z,96000
2016-04-23T09:29:09.356Z,95360
2016-04-23T09:29:52.328Z,97824
2016-04-23T09:30:35.315Z,96320
2016-04-23T09:31:18.002Z,94880
2016-04-23T09:32:01.552Z,90560
2016-04-23T09:32:44.665Z,89504
2016-04-23T09:33:28.057Z,81376
2016-04-23T09:34:11.776Z,19808
2016-04-23T09:34:54.904Z,26304
2016-04-23T09:35:37.923Z,18208
2016-04-23T09:36:20.909Z,40672
2016-04-23T09:37:03.862Z,16660
2016-04-23T09:37:46.818Z,18464
2016-04-23T09:38:29.789Z,25696
2016-04-23T09:39:12.742Z,72224
2016-04-23T09:39:56.198Z,98624
2016-04-23T09:40:39.154Z,96928
2016-04-23T09:41:26.673Z,97568
2016-04-23T09:42:09.689Z,98304
2016-04-23T09:42:53.878Z,101792
2016-04-23T09:43:37.928Z,52448
2016-04-23T09:44:20.806Z,34144
2016-04-23T09:45:04.400Z,33696
2016-04-23T09:45:47.120Z,66528
2016-04-23T09:46:30.077Z,72832
2016-04-23T09:47:13.061Z,27744
2016-04-23T09:47:56.033Z,24608
2016-04-23T09:48:39.004Z,26912
2016-04-23T09:49:21.992Z,90944
2016-04-23T09:50:04.945Z,18208
2016-04-23T09:50:47.963Z,15180
2016-04-23T09:51:30.966Z,13484
2016-04-23T09:52:13.809Z,12424
2016-04-23T09:52:56.686Z,11760
2016-04-23T09:53:39.658Z,11532
2016-04-23T09:54:22.645Z,11796
2016-04-23T09:55:05.614Z,12052
2016-04-23T09:55:48.601Z,12192